sensor_id;sensor_type;location;lat;lon;timestamp;temperature;humidity
3334;DHT22;1679;50.392;8.008;2023-06-24T00:01:32;16.70;99.90
3334;DHT22;1679;50.392;8.008;2023-06-24T00:03:59;16.60;99.90
3334;DHT22;1679;50.392;8.008;2023-06-24T00:06:24;16.50;99.90
3334;DHT22;1679;50.392;8.008;2023-06-24T00:08:52;16.40;99.90
3334;DHT22;1679;50.392;8.008;2023-06-24T00:11:26;16.40;99.90
3334;DHT22;1679;50.392;8.008;2023-06-24T00:13:51;16.40;99.90
3334;DHT22;1679;50.392;8.008;2023-06-24T00:16:17;16.40;99.90
3334;DHT22;1679;50.392;8.008;2023-06-24T00:18:42;16.50;99.90
3334;DHT22;1679;50.392;8.008;2023-06-24T00:21:08;16.40;99.90
3334;DHT22;1679;50.392;8.008;2023-06-24T00:23:33;16.30;99.90
3334;DHT22;1679;50.392;8.008;2023-06-24T00:26:02;16.30;99.90
3334;DHT22;1679;50.392;8.008;2023-06-24T00:28:27;16.20;99.90
3334;DHT22;1679;50.392;8.008;2023-06-24T00:30:53;16.10;99.90
3334;DHT22;1679;50.392;8.008;2023-06-24T00:33:22;16.10;99.90
3334;DHT22;1679;50.392;8.008;2023-06-24T00:35:47;16.10;99.90
3334;DHT22;1679;50.392;8.008;2023-06-24T00:38:13;16.00;99.90
3334;DHT22;1679;50.392;8.008;2023-06-24T00:40:39;15.90;99.90
3334;DHT22;1679;50.392;8.008;2023-06-24T00:43:05;15.80;99.90
3334;DHT22;1679;50.392;8.008;2023-06-24T00:45:31;15.80;99.90
3334;DHT22;1679;50.392;8.008;2023-06-24T00:47:57;15.70;99.90
3334;DHT22;1679;50.392;8.008;2023-06-24T00:50:24;15.70;99.90
3334;DHT22;1679;50.392;8.008;2023-06-24T00:52:49;15.70;99.90
3334;DHT22;1679;50.392;8.008;2023-06-24T00:55:16;15.70;99.90
3334;DHT22;1679;50.392;8.008;2023-06-24T00:57:46;15.70;99.90
3334;DHT22;1679;50.392;8.008;2023-06-24T01:00:18;15.70;99.90
3334;DHT22;1679;50.392;8.008;2023-06-24T01:02:44;15.70;99.90
3334;DHT22;1679;50.392;8.008;2023-06-24T01:05:12;15.70;99.90
3334;DHT22;1679;50.392;8.008;2023-06-24T01:07:38;15.70;99.90
3334;DHT22;1679;50.392;8.008;2023-06-24T01:10:05;15.70;99.90
3334;DHT22;1679;50.392;8.008;2023-06-24T01:12:33;15.70;99.90
3334;DHT22;1679;50.392;8.008;2023-06-24T01:14:59;15.70;99.90
3334;DHT22;1679;50.392;8.008;2023-06-24T01:17:34;15.70;99.90
3334;DHT22;1679;50.392;8.008;2023-06-24T01:20:44;15.60;99.90
3334;DHT22;1679;50.392;8.008;2023-06-24T01:25:59;15.50;99.90
3334;DHT22;1679;50.392;8.008;2023-06-24T01:31:51;15.40;99.90
3334;DHT22;1679;50.392;8.008;2023-06-24T01:34:26;15.40;99.90
3334;DHT22;1679;50.392;8.008;2023-06-24T01:37:00;15.40;99.90
3334;DHT22;1679;50.392;8.008;2023-06-24T01:39:31;15.40;99.90
3334;DHT22;1679;50.392;8.008;2023-06-24T01:42:03;15.30;99.90
3334;DHT22;1679;50.392;8.008;2023-06-24T01:44:31;15.30;99.90
3334;DHT22;1679;50.392;8.008;2023-06-24T01:46:59;15.30;99.90
3334;DHT22;1679;50.392;8.008;2023-06-24T01:49:28;15.40;99.90
3334;DHT22;1679;50.392;8.008;2023-06-24T01:51:57;15.30;99.90
3334;DHT22;1679;50.392;8.008;2023-06-24T01:54:24;15.30;99.90
3334;DHT22;1679;50.392;8.008;2023-06-24T01:56:52;15.30;99.90
3334;DHT22;1679;50.392;8.008;2023-06-24T01:59:20;15.30;99.90
3334;DHT22;1679;50.392;8.008;2023-06-24T02:01:47;15.30;99.90
3334;DHT22;1679;50.392;8.008;2023-06-24T02:04:15;15.20;99.90
3334;DHT22;1679;50.392;8.008;2023-06-24T02:06:42;15.10;99.90
3334;DHT22;1679;50.392;8.008;2023-06-24T02:09:08;15.10;99.90
3334;DHT22;1679;50.392;8.008;2023-06-24T02:11:37;15.20;99.90
3334;DHT22;1679;50.392;8.008;2023-06-24T02:14:04;15.20;99.90
3334;DHT22;1679;50.392;8.008;2023-06-24T02:16:32;15.10;99.90
3334;DHT22;1679;50.392;8.008;2023-06-24T02:18:58;15.00;99.90
3334;DHT22;1679;50.392;8.008;2023-06-24T02:21:25;15.00;99.90
3334;DHT22;1679;50.392;8.008;2023-06-24T02:23:53;14.90;99.90
3334;DHT22;1679;50.392;8.008;2023-06-24T02:26:21;14.90;99.90
3334;DHT22;1679;50.392;8.008;2023-06-24T02:28:49;14.90;99.90
3334;DHT22;1679;50.392;8.008;2023-06-24T02:31:15;14.90;99.90
3334;DHT22;1679;50.392;8.008;2023-06-24T02:33:43;14.90;99.90
3334;DHT22;1679;50.392;8.008;2023-06-24T02:36:08;14.90;99.90
3334;DHT22;1679;50.392;8.008;2023-06-24T02:38:35;14.90;99.90
3334;DHT22;1679;50.392;8.008;2023-06-24T02:41:00;14.80;99.90
3334;DHT22;1679;50.392;8.008;2023-06-24T02:43:29;14.70;99.90
3334;DHT22;1679;50.392;8.008;2023-06-24T02:45:55;14.70;99.90
3334;DHT22;1679;50.392;8.008;2023-06-24T02:48:22;14.70;99.90
3334;DHT22;1679;50.392;8.008;2023-06-24T02:50:48;14.70;99.90
3334;DHT22;1679;50.392;8.008;2023-06-24T02:53:14;14.70;99.90
3334;DHT22;1679;50.392;8.008;2023-06-24T02:55:41;14.60;99.90
3334;DHT22;1679;50.392;8.008;2023-06-24T02:58:08;14.60;99.90
3334;DHT22;1679;50.392;8.008;2023-06-24T03:00:37;14.60;99.90
3334;DHT22;1679;50.392;8.008;2023-06-24T03:03:05;14.60;99.90
3334;DHT22;1679;50.392;8.008;2023-06-24T03:05:31;14.60;99.90
3334;DHT22;1679;50.392;8.008;2023-06-24T03:07:58;14.60;99.90
3334;DHT22;1679;50.392;8.008;2023-06-24T03:10:24;14.50;99.90
3334;DHT22;1679;50.392;8.008;2023-06-24T03:12:51;14.60;99.90
3334;DHT22;1679;50.392;8.008;2023-06-24T03:15:18;14.60;99.90
3334;DHT22;1679;50.392;8.008;2023-06-24T03:17:44;14.60;99.90
3334;DHT22;1679;50.392;8.008;2023-06-24T03:20:10;14.60;99.90
3334;DHT22;1679;50.392;8.008;2023-06-24T03:22:36;14.60;99.90
3334;DHT22;1679;50.392;8.008;2023-06-24T03:25:02;14.50;99.90
3334;DHT22;1679;50.392;8.008;2023-06-24T03:27:27;14.50;99.90
3334;DHT22;1679;50.392;8.008;2023-06-24T03:29:53;14.60;99.90
3334;DHT22;1679;50.392;8.008;2023-06-24T03:32:19;14.60;99.90
3334;DHT22;1679;50.392;8.008;2023-06-24T03:34:44;14.60;99.90
3334;DHT22;1679;50.392;8.008;2023-06-24T03:37:10;14.60;99.90
3334;DHT22;1679;50.392;8.008;2023-06-24T03:39:36;14.50;99.90
3334;DHT22;1679;50.392;8.008;2023-06-24T03:42:01;14.50;99.90
3334;DHT22;1679;50.392;8.008;2023-06-24T03:44:27;14.50;99.90
3334;DHT22;1679;50.392;8.008;2023-06-24T03:46:52;14.50;99.90
3334;DHT22;1679;50.392;8.008;2023-06-24T03:49:18;14.50;99.90
3334;DHT22;1679;50.392;8.008;2023-06-24T03:51:46;14.50;99.90
3334;DHT22;1679;50.392;8.008;2023-06-24T03:54:11;14.60;99.90
3334;DHT22;1679;50.392;8.008;2023-06-24T03:56:37;14.60;99.90
3334;DHT22;1679;50.392;8.008;2023-06-24T03:59:02;14.60;99.90
3334;DHT22;1679;50.392;8.008;2023-06-24T04:01:28;14.60;99.90
3334;DHT22;1679;50.392;8.008;2023-06-24T04:03:57;14.60;99.90
3334;DHT22;1679;50.392;8.008;2023-06-24T04:06:22;14.60;99.90
3334;DHT22;1679;50.392;8.008;2023-06-24T04:08:48;14.70;99.90
3334;DHT22;1679;50.392;8.008;2023-06-24T04:11:14;14.70;99.90
3334;DHT22;1679;50.392;8.008;2023-06-24T04:13:41;14.80;99.90
3334;DHT22;1679;50.392;8.008;2023-06-24T04:16:06;14.90;99.90
3334;DHT22;1679;50.392;8.008;2023-06-24T04:18:32;14.90;99.90
3334;DHT22;1679;50.392;8.008;2023-06-24T04:20:58;14.90;99.90
3334;DHT22;1679;50.392;8.008;2023-06-24T04:23:24;15.00;99.90
3334;DHT22;1679;50.392;8.008;2023-06-24T04:25:51;15.00;99.90
3334;DHT22;1679;50.392;8.008;2023-06-24T04:28:17;15.00;99.90
3334;DHT22;1679;50.392;8.008;2023-06-24T04:30:43;15.00;99.90
3334;DHT22;1679;50.392;8.008;2023-06-24T04:33:08;15.00;99.90
3334;DHT22;1679;50.392;8.008;2023-06-24T04:35:34;15.00;99.90
3334;DHT22;1679;50.392;8.008;2023-06-24T04:37:59;15.10;99.90
3334;DHT22;1679;50.392;8.008;2023-06-24T04:40:25;15.10;99.90
3334;DHT22;1679;50.392;8.008;2023-06-24T04:42:51;15.20;99.90
3334;DHT22;1679;50.392;8.008;2023-06-24T04:45:16;15.20;99.90
3334;DHT22;1679;50.392;8.008;2023-06-24T04:47:42;15.30;99.90
3334;DHT22;1679;50.392;8.008;2023-06-24T04:50:09;15.30;99.90
3334;DHT22;1679;50.392;8.008;2023-06-24T04:52:35;15.30;99.90
3334;DHT22;1679;50.392;8.008;2023-06-24T04:55:01;15.30;99.90
3334;DHT22;1679;50.392;8.008;2023-06-24T04:57:28;15.40;99.90
3334;DHT22;1679;50.392;8.008;2023-06-24T04:59:54;15.40;99.90
3334;DHT22;1679;50.392;8.008;2023-06-24T05:02:20;15.40;99.90
3334;DHT22;1679;50.392;8.008;2023-06-24T05:04:45;15.50;99.90
3334;DHT22;1679;50.392;8.008;2023-06-24T05:07:11;15.60;99.90
3334;DHT22;1679;50.392;8.008;2023-06-24T05:09:37;15.70;99.90
3334;DHT22;1679;50.392;8.008;2023-06-24T05:12:04;15.80;99.90
3334;DHT22;1679;50.392;8.008;2023-06-24T05:14:30;15.80;99.90
3334;DHT22;1679;50.392;8.008;2023-06-24T05:16:55;15.90;99.90
3334;DHT22;1679;50.392;8.008;2023-06-24T05:19:21;16.00;99.90
3334;DHT22;1679;50.392;8.008;2023-06-24T05:21:46;16.00;99.90
3334;DHT22;1679;50.392;8.008;2023-06-24T05:24:12;16.00;99.90
3334;DHT22;1679;50.392;8.008;2023-06-24T05:26:37;16.00;99.90
3334;DHT22;1679;50.392;8.008;2023-06-24T05:29:03;16.20;99.90
3334;DHT22;1679;50.392;8.008;2023-06-24T05:31:30;16.20;99.90
3334;DHT22;1679;50.392;8.008;2023-06-24T05:33:55;16.30;99.90
3334;DHT22;1679;50.392;8.008;2023-06-24T05:36:21;16.50;99.90
3334;DHT22;1679;50.392;8.008;2023-06-24T05:38:46;16.60;99.90
3334;DHT22;1679;50.392;8.008;2023-06-24T05:41:13;16.60;99.90
3334;DHT22;1679;50.392;8.008;2023-06-24T05:43:39;16.70;99.90
3334;DHT22;1679;50.392;8.008;2023-06-24T05:46:04;16.80;99.90
3334;DHT22;1679;50.392;8.008;2023-06-24T05:48:30;16.90;99.90
3334;DHT22;1679;50.392;8.008;2023-06-24T05:50:55;16.90;99.90
3334;DHT22;1679;50.392;8.008;2023-06-24T05:53:21;17.00;99.90
3334;DHT22;1679;50.392;8.008;2023-06-24T05:55:46;17.10;99.90
3334;DHT22;1679;50.392;8.008;2023-06-24T05:58:12;17.30;99.90
3334;DHT22;1679;50.392;8.008;2023-06-24T06:00:38;17.40;99.90
3334;DHT22;1679;50.392;8.008;2023-06-24T06:03:04;17.50;99.90
3334;DHT22;1679;50.392;8.008;2023-06-24T06:05:30;17.60;99.90
3334;DHT22;1679;50.392;8.008;2023-06-24T06:07:55;17.70;99.90
3334;DHT22;1679;50.392;8.008;2023-06-24T06:10:22;17.70;99.90
3334;DHT22;1679;50.392;8.008;2023-06-24T06:12:47;17.70;99.90
3334;DHT22;1679;50.392;8.008;2023-06-24T06:15:13;17.80;99.90
3334;DHT22;1679;50.392;8.008;2023-06-24T06:17:38;17.90;99.90
3334;DHT22;1679;50.392;8.008;2023-06-24T06:20:04;18.10;99.90
3334;DHT22;1679;50.392;8.008;2023-06-24T06:22:30;18.10;99.90
3334;DHT22;1679;50.392;8.008;2023-06-24T06:24:57;18.30;99.90
3334;DHT22;1679;50.392;8.008;2023-06-24T06:27:22;18.40;99.90
3334;DHT22;1679;50.392;8.008;2023-06-24T06:29:49;18.60;99.90
3334;DHT22;1679;50.392;8.008;2023-06-24T06:32:14;18.80;99.90
3334;DHT22;1679;50.392;8.008;2023-06-24T06:34:40;18.80;99.90
3334;DHT22;1679;50.392;8.008;2023-06-24T06:37:05;18.90;99.90
3334;DHT22;1679;50.392;8.008;2023-06-24T06:39:31;19.20;99.90
3334;DHT22;1679;50.392;8.008;2023-06-24T06:41:56;19.50;99.90
3334;DHT22;1679;50.392;8.008;2023-06-24T06:44:22;19.90;99.90
3334;DHT22;1679;50.392;8.008;2023-06-24T06:46:47;20.40;99.90
3334;DHT22;1679;50.392;8.008;2023-06-24T06:49:13;20.80;99.90
3334;DHT22;1679;50.392;8.008;2023-06-24T06:51:38;20.90;99.90
3334;DHT22;1679;50.392;8.008;2023-06-24T06:54:04;21.00;99.90
3334;DHT22;1679;50.392;8.008;2023-06-24T06:56:29;21.40;99.90
3334;DHT22;1679;50.392;8.008;2023-06-24T06:58:55;21.80;99.90
3334;DHT22;1679;50.392;8.008;2023-06-24T07:01:20;22.40;99.90
3334;DHT22;1679;50.392;8.008;2023-06-24T07:03:46;22.80;99.90
3334;DHT22;1679;50.392;8.008;2023-06-24T07:06:11;23.30;99.90
3334;DHT22;1679;50.392;8.008;2023-06-24T07:08:37;23.80;99.90
3334;DHT22;1679;50.392;8.008;2023-06-24T07:11:03;24.30;99.90
3334;DHT22;1679;50.392;8.008;2023-06-24T07:13:28;24.80;99.90
3334;DHT22;1679;50.392;8.008;2023-06-24T07:15:54;25.10;99.90
3334;DHT22;1679;50.392;8.008;2023-06-24T07:18:19;24.90;99.90
3334;DHT22;1679;50.392;8.008;2023-06-24T07:20:48;24.90;99.90
3334;DHT22;1679;50.392;8.008;2023-06-24T07:23:14;25.30;99.90
3334;DHT22;1679;50.392;8.008;2023-06-24T07:25:39;25.80;99.90
3334;DHT22;1679;50.392;8.008;2023-06-24T07:28:05;25.90;99.90
3334;DHT22;1679;50.392;8.008;2023-06-24T07:30:30;26.10;99.90
3334;DHT22;1679;50.392;8.008;2023-06-24T07:32:56;26.40;99.90
3334;DHT22;1679;50.392;8.008;2023-06-24T07:35:22;26.50;99.90
3334;DHT22;1679;50.392;8.008;2023-06-24T07:37:48;26.80;99.90
3334;DHT22;1679;50.392;8.008;2023-06-24T07:40:14;27.00;99.90
3334;DHT22;1679;50.392;8.008;2023-06-24T07:42:41;27.10;99.90
3334;DHT22;1679;50.392;8.008;2023-06-24T07:45:06;27.30;99.90
3334;DHT22;1679;50.392;8.008;2023-06-24T07:47:32;27.30;99.90
3334;DHT22;1679;50.392;8.008;2023-06-24T07:49:58;27.50;99.90
3334;DHT22;1679;50.392;8.008;2023-06-24T07:52:23;27.20;99.90
3334;DHT22;1679;50.392;8.008;2023-06-24T07:54:49;26.80;99.90
3334;DHT22;1679;50.392;8.008;2023-06-24T07:57:14;27.00;99.90
3334;DHT22;1679;50.392;8.008;2023-06-24T07:59:40;27.00;99.90
3334;DHT22;1679;50.392;8.008;2023-06-24T08:02:07;26.90;99.90
3334;DHT22;1679;50.392;8.008;2023-06-24T08:04:33;27.10;99.90
3334;DHT22;1679;50.392;8.008;2023-06-24T08:06:58;26.80;99.90
3334;DHT22;1679;50.392;8.008;2023-06-24T08:09:24;27.10;99.90
3334;DHT22;1679;50.392;8.008;2023-06-24T08:11:49;27.10;99.90
3334;DHT22;1679;50.392;8.008;2023-06-24T08:14:15;27.40;99.90
3334;DHT22;1679;50.392;8.008;2023-06-24T08:16:40;27.80;99.90
3334;DHT22;1679;50.392;8.008;2023-06-24T08:19:05;28.20;99.90
3334;DHT22;1679;50.392;8.008;2023-06-24T08:21:31;28.50;99.90
3334;DHT22;1679;50.392;8.008;2023-06-24T08:23:57;28.70;99.90
3334;DHT22;1679;50.392;8.008;2023-06-24T08:26:22;28.80;99.90
3334;DHT22;1679;50.392;8.008;2023-06-24T08:28:48;29.10;99.90
3334;DHT22;1679;50.392;8.008;2023-06-24T08:31:14;29.30;99.90
3334;DHT22;1679;50.392;8.008;2023-06-24T08:33:45;29.50;99.90
3334;DHT22;1679;50.392;8.008;2023-06-24T08:36:12;29.60;99.90
3334;DHT22;1679;50.392;8.008;2023-06-24T08:38:37;29.50;99.90
3334;DHT22;1679;50.392;8.008;2023-06-24T08:41:03;29.50;99.90
3334;DHT22;1679;50.392;8.008;2023-06-24T08:43:28;29.40;99.90
3334;DHT22;1679;50.392;8.008;2023-06-24T08:45:54;29.60;99.90
3334;DHT22;1679;50.392;8.008;2023-06-24T08:48:20;29.90;99.90
3334;DHT22;1679;50.392;8.008;2023-06-24T08:50:50;29.80;99.90
3334;DHT22;1679;50.392;8.008;2023-06-24T08:53:18;29.70;99.90
3334;DHT22;1679;50.392;8.008;2023-06-24T08:55:46;29.80;99.90
3334;DHT22;1679;50.392;8.008;2023-06-24T08:58:13;29.70;99.90
3334;DHT22;1679;50.392;8.008;2023-06-24T09:00:40;29.40;99.90
3334;DHT22;1679;50.392;8.008;2023-06-24T09:03:07;29.30;99.90
3334;DHT22;1679;50.392;8.008;2023-06-24T09:05:32;29.40;99.90
3334;DHT22;1679;50.392;8.008;2023-06-24T09:07:57;29.40;99.90
3334;DHT22;1679;50.392;8.008;2023-06-24T09:10:34;29.40;99.90
3334;DHT22;1679;50.392;8.008;2023-06-24T09:13:01;29.50;99.90
3334;DHT22;1679;50.392;8.008;2023-06-24T09:15:36;29.60;99.90
3334;DHT22;1679;50.392;8.008;2023-06-24T09:18:03;29.60;99.90
3334;DHT22;1679;50.392;8.008;2023-06-24T09:20:30;29.30;99.90
3334;DHT22;1679;50.392;8.008;2023-06-24T09:23:01;29.30;99.90
3334;DHT22;1679;50.392;8.008;2023-06-24T09:25:26;29.20;99.90
3334;DHT22;1679;50.392;8.008;2023-06-24T09:27:52;29.50;99.90
3334;DHT22;1679;50.392;8.008;2023-06-24T09:30:19;29.60;99.90
3334;DHT22;1679;50.392;8.008;2023-06-24T09:32:46;29.40;99.90
3334;DHT22;1679;50.392;8.008;2023-06-24T09:35:12;29.20;99.90
3334;DHT22;1679;50.392;8.008;2023-06-24T09:37:38;29.30;99.90
3334;DHT22;1679;50.392;8.008;2023-06-24T09:40:04;29.50;99.90
3334;DHT22;1679;50.392;8.008;2023-06-24T09:42:32;29.40;99.90
3334;DHT22;1679;50.392;8.008;2023-06-24T09:44:57;29.60;99.90
3334;DHT22;1679;50.392;8.008;2023-06-24T09:47:23;29.80;99.90
3334;DHT22;1679;50.392;8.008;2023-06-24T09:49:54;30.10;98.20
3334;DHT22;1679;50.392;8.008;2023-06-24T09:52:20;30.50;98.20
3334;DHT22;1679;50.392;8.008;2023-06-24T09:54:50;30.70;98.40
3334;DHT22;1679;50.392;8.008;2023-06-24T09:57:29;30.70;97.20
3334;DHT22;1679;50.392;8.008;2023-06-24T09:59:57;31.00;96.70
3334;DHT22;1679;50.392;8.008;2023-06-24T10:02:24;31.50;96.20
3334;DHT22;1679;50.392;8.008;2023-06-24T10:04:51;31.20;96.70
3334;DHT22;1679;50.392;8.008;2023-06-24T10:07:18;31.20;94.70
3334;DHT22;1679;50.392;8.008;2023-06-24T10:09:43;31.00;95.80
3334;DHT22;1679;50.392;8.008;2023-06-24T10:12:09;30.70;96.20
3334;DHT22;1679;50.392;8.008;2023-06-24T10:14:35;30.60;96.10
3334;DHT22;1679;50.392;8.008;2023-06-24T10:17:04;30.40;95.00
3334;DHT22;1679;50.392;8.008;2023-06-24T10:19:40;30.40;96.40
3334;DHT22;1679;50.392;8.008;2023-06-24T10:22:09;30.30;98.10
3334;DHT22;1679;50.392;8.008;2023-06-24T10:24:39;30.30;97.60
3334;DHT22;1679;50.392;8.008;2023-06-24T10:27:18;30.50;96.70
3334;DHT22;1679;50.392;8.008;2023-06-24T10:29:49;30.50;96.70
3334;DHT22;1679;50.392;8.008;2023-06-24T10:32:15;30.60;96.70
3334;DHT22;1679;50.392;8.008;2023-06-24T10:34:45;30.60;96.10
3334;DHT22;1679;50.392;8.008;2023-06-24T10:37:14;29.80;96.10
3334;DHT22;1679;50.392;8.008;2023-06-24T10:42:39;28.90;98.70
3334;DHT22;1679;50.392;8.008;2023-06-24T10:47:36;28.70;99.00
3334;DHT22;1679;50.392;8.008;2023-06-24T10:50:02;28.70;99.40
3334;DHT22;1679;50.392;8.008;2023-06-24T10:52:28;29.00;98.90
3334;DHT22;1679;50.392;8.008;2023-06-24T10:54:56;29.20;99.80
3334;DHT22;1679;50.392;8.008;2023-06-24T10:57:25;28.90;99.10
3334;DHT22;1679;50.392;8.008;2023-06-24T10:59:53;28.90;99.90
3334;DHT22;1679;50.392;8.008;2023-06-24T11:02:24;29.20;99.30
3334;DHT22;1679;50.392;8.008;2023-06-24T11:04:54;29.10;98.00
3334;DHT22;1679;50.392;8.008;2023-06-24T11:07:24;29.00;97.90
3334;DHT22;1679;50.392;8.008;2023-06-24T11:09:55;29.10;98.60
3334;DHT22;1679;50.392;8.008;2023-06-24T11:12:28;29.20;98.10
3334;DHT22;1679;50.392;8.008;2023-06-24T11:14:57;29.50;98.80
3334;DHT22;1679;50.392;8.008;2023-06-24T11:17:25;29.60;97.80
3334;DHT22;1679;50.392;8.008;2023-06-24T11:19:53;29.80;98.00
3334;DHT22;1679;50.392;8.008;2023-06-24T11:22:18;30.00;97.00
3334;DHT22;1679;50.392;8.008;2023-06-24T11:24:44;30.00;97.30
3334;DHT22;1679;50.392;8.008;2023-06-24T11:27:09;29.90;98.00
3334;DHT22;1679;50.392;8.008;2023-06-24T11:29:35;30.00;97.30
3334;DHT22;1679;50.392;8.008;2023-06-24T11:32:07;30.10;97.50
3334;DHT22;1679;50.392;8.008;2023-06-24T11:34:33;30.20;97.50
3334;DHT22;1679;50.392;8.008;2023-06-24T11:36:58;30.30;96.60
3334;DHT22;1679;50.392;8.008;2023-06-24T11:39:25;30.00;97.10
3334;DHT22;1679;50.392;8.008;2023-06-24T11:41:52;30.10;97.00
3334;DHT22;1679;50.392;8.008;2023-06-24T11:44:19;30.10;97.50
3334;DHT22;1679;50.392;8.008;2023-06-24T11:46:44;30.10;97.40
3334;DHT22;1679;50.392;8.008;2023-06-24T11:49:10;30.30;96.50
3334;DHT22;1679;50.392;8.008;2023-06-24T11:51:36;30.30;97.60
3334;DHT22;1679;50.392;8.008;2023-06-24T11:54:03;30.10;97.50
3334;DHT22;1679;50.392;8.008;2023-06-24T11:56:39;30.00;95.60
3334;DHT22;1679;50.392;8.008;2023-06-24T11:59:19;29.80;97.50
3334;DHT22;1679;50.392;8.008;2023-06-24T12:01:53;29.50;98.50
3334;DHT22;1679;50.392;8.008;2023-06-24T12:04:19;29.50;98.00
3334;DHT22;1679;50.392;8.008;2023-06-24T12:06:45;29.40;96.30
3334;DHT22;1679;50.392;8.008;2023-06-24T12:09:11;29.20;96.20
3334;DHT22;1679;50.392;8.008;2023-06-24T12:11:37;29.10;97.70
3334;DHT22;1679;50.392;8.008;2023-06-24T12:14:03;29.00;97.60
3334;DHT22;1679;50.392;8.008;2023-06-24T12:16:29;28.80;98.60
3334;DHT22;1679;50.392;8.008;2023-06-24T12:18:55;28.80;97.80
3334;DHT22;1679;50.392;8.008;2023-06-24T12:21:21;28.70;97.30
3334;DHT22;1679;50.392;8.008;2023-06-24T12:23:46;28.90;98.80
3334;DHT22;1679;50.392;8.008;2023-06-24T12:26:12;28.90;99.10
3334;DHT22;1679;50.392;8.008;2023-06-24T12:28:38;28.90;97.50
3334;DHT22;1679;50.392;8.008;2023-06-24T12:31:03;28.90;97.20
3334;DHT22;1679;50.392;8.008;2023-06-24T12:33:30;28.80;96.80
3334;DHT22;1679;50.392;8.008;2023-06-24T12:35:55;28.80;98.10
3334;DHT22;1679;50.392;8.008;2023-06-24T12:38:21;28.70;96.60
3334;DHT22;1679;50.392;8.008;2023-06-24T12:40:46;28.60;96.60
3334;DHT22;1679;50.392;8.008;2023-06-24T12:43:13;28.50;96.30
3334;DHT22;1679;50.392;8.008;2023-06-24T12:45:40;28.50;98.50
3334;DHT22;1679;50.392;8.008;2023-06-24T12:48:08;28.50;96.40
3334;DHT22;1679;50.392;8.008;2023-06-24T12:50:34;28.50;96.60
3334;DHT22;1679;50.392;8.008;2023-06-24T12:52:59;28.50;96.70
3334;DHT22;1679;50.392;8.008;2023-06-24T12:55:25;28.50;97.20
3334;DHT22;1679;50.392;8.008;2023-06-24T12:57:50;28.50;97.40
3334;DHT22;1679;50.392;8.008;2023-06-24T13:00:19;28.40;97.50
3334;DHT22;1679;50.392;8.008;2023-06-24T13:02:45;28.40;97.20
3334;DHT22;1679;50.392;8.008;2023-06-24T13:05:11;28.10;95.90
3334;DHT22;1679;50.392;8.008;2023-06-24T13:07:36;27.90;96.50
3334;DHT22;1679;50.392;8.008;2023-06-24T13:10:02;27.70;97.50
3334;DHT22;1679;50.392;8.008;2023-06-24T13:12:31;27.50;97.30
3334;DHT22;1679;50.392;8.008;2023-06-24T13:14:56;27.60;97.80
3334;DHT22;1679;50.392;8.008;2023-06-24T13:17:22;27.70;97.10
3334;DHT22;1679;50.392;8.008;2023-06-24T13:19:47;27.70;98.10
3334;DHT22;1679;50.392;8.008;2023-06-24T13:22:13;27.80;97.90
3334;DHT22;1679;50.392;8.008;2023-06-24T13:24:39;27.80;97.70
3334;DHT22;1679;50.392;8.008;2023-06-24T13:27:04;27.80;97.70
3334;DHT22;1679;50.392;8.008;2023-06-24T13:29:30;27.60;97.50
3334;DHT22;1679;50.392;8.008;2023-06-24T13:31:56;27.40;98.70
3334;DHT22;1679;50.392;8.008;2023-06-24T13:34:22;27.20;98.40
3334;DHT22;1679;50.392;8.008;2023-06-24T13:36:47;27.20;99.10
3334;DHT22;1679;50.392;8.008;2023-06-24T13:39:14;27.20;99.10
3334;DHT22;1679;50.392;8.008;2023-06-24T13:41:44;27.40;99.50
3334;DHT22;1679;50.392;8.008;2023-06-24T13:44:09;27.40;98.00
3334;DHT22;1679;50.392;8.008;2023-06-24T13:46:35;27.50;98.20
3334;DHT22;1679;50.392;8.008;2023-06-24T13:49:01;27.50;98.00
3334;DHT22;1679;50.392;8.008;2023-06-24T13:51:27;27.60;98.90
3334;DHT22;1679;50.392;8.008;2023-06-24T13:53:54;27.70;97.00
3334;DHT22;1679;50.392;8.008;2023-06-24T13:56:21;27.70;97.50
3334;DHT22;1679;50.392;8.008;2023-06-24T13:58:47;27.80;96.70
3334;DHT22;1679;50.392;8.008;2023-06-24T14:01:13;27.90;97.90
3334;DHT22;1679;50.392;8.008;2023-06-24T14:03:39;27.90;96.50
3334;DHT22;1679;50.392;8.008;2023-06-24T14:06:05;27.90;97.80
3334;DHT22;1679;50.392;8.008;2023-06-24T14:08:32;28.00;97.60
3334;DHT22;1679;50.392;8.008;2023-06-24T14:10:59;28.00;97.10
3334;DHT22;1679;50.392;8.008;2023-06-24T14:13:26;28.00;96.80
3334;DHT22;1679;50.392;8.008;2023-06-24T14:15:52;28.00;97.20
3334;DHT22;1679;50.392;8.008;2023-06-24T14:18:18;28.00;96.20
3334;DHT22;1679;50.392;8.008;2023-06-24T14:20:43;28.00;96.50
3334;DHT22;1679;50.392;8.008;2023-06-24T14:23:09;28.10;96.80
3334;DHT22;1679;50.392;8.008;2023-06-24T14:25:36;28.10;96.90
3334;DHT22;1679;50.392;8.008;2023-06-24T14:28:06;28.00;95.70
3334;DHT22;1679;50.392;8.008;2023-06-24T14:30:33;27.80;96.40
3334;DHT22;1679;50.392;8.008;2023-06-24T14:32:59;27.80;97.30
3334;DHT22;1679;50.392;8.008;2023-06-24T14:35:25;27.90;97.00
3334;DHT22;1679;50.392;8.008;2023-06-24T14:37:51;28.00;96.00
3334;DHT22;1679;50.392;8.008;2023-06-24T14:40:16;28.00;96.80
3334;DHT22;1679;50.392;8.008;2023-06-24T14:42:42;28.00;96.00
3334;DHT22;1679;50.392;8.008;2023-06-24T14:45:07;28.10;96.10
3334;DHT22;1679;50.392;8.008;2023-06-24T14:47:33;28.20;96.30
3334;DHT22;1679;50.392;8.008;2023-06-24T14:49:59;28.40;95.30
3334;DHT22;1679;50.392;8.008;2023-06-24T14:52:26;28.60;96.70
3334;DHT22;1679;50.392;8.008;2023-06-24T14:54:51;28.90;97.50
3334;DHT22;1679;50.392;8.008;2023-06-24T14:57:17;29.00;95.70
3334;DHT22;1679;50.392;8.008;2023-06-24T14:59:42;29.20;96.00
3334;DHT22;1679;50.392;8.008;2023-06-24T15:02:08;29.20;95.50
3334;DHT22;1679;50.392;8.008;2023-06-24T15:04:35;29.20;95.30
3334;DHT22;1679;50.392;8.008;2023-06-24T15:07:01;29.20;94.80
3334;DHT22;1679;50.392;8.008;2023-06-24T15:09:26;29.10;95.40
3334;DHT22;1679;50.392;8.008;2023-06-24T15:11:52;29.00;94.70
3334;DHT22;1679;50.392;8.008;2023-06-24T15:14:18;29.00;95.80
3334;DHT22;1679;50.392;8.008;2023-06-24T15:16:43;29.00;95.00
3334;DHT22;1679;50.392;8.008;2023-06-24T15:19:09;29.00;94.90
3334;DHT22;1679;50.392;8.008;2023-06-24T15:21:34;29.00;94.50
3334;DHT22;1679;50.392;8.008;2023-06-24T15:24:00;29.00;95.40
3334;DHT22;1679;50.392;8.008;2023-06-24T15:26:25;29.10;95.30
3334;DHT22;1679;50.392;8.008;2023-06-24T15:28:51;29.10;96.50
3334;DHT22;1679;50.392;8.008;2023-06-24T15:31:16;29.20;95.30
3334;DHT22;1679;50.392;8.008;2023-06-24T15:33:42;29.10;95.30
3334;DHT22;1679;50.392;8.008;2023-06-24T15:36:07;29.10;97.30
3334;DHT22;1679;50.392;8.008;2023-06-24T15:38:34;29.00;95.20
3334;DHT22;1679;50.392;8.008;2023-06-24T15:40:59;28.90;95.70
3334;DHT22;1679;50.392;8.008;2023-06-24T15:43:25;28.90;96.30
3334;DHT22;1679;50.392;8.008;2023-06-24T15:45:50;28.90;96.80
3334;DHT22;1679;50.392;8.008;2023-06-24T15:48:16;28.90;96.80
3334;DHT22;1679;50.392;8.008;2023-06-24T15:50:41;28.80;97.00
3334;DHT22;1679;50.392;8.008;2023-06-24T15:53:09;28.70;95.60
3334;DHT22;1679;50.392;8.008;2023-06-24T15:55:34;28.60;96.10
3334;DHT22;1679;50.392;8.008;2023-06-24T15:58:00;28.40;96.20
3334;DHT22;1679;50.392;8.008;2023-06-24T16:00:25;28.30;95.60
3334;DHT22;1679;50.392;8.008;2023-06-24T16:02:51;28.10;96.00
3334;DHT22;1679;50.392;8.008;2023-06-24T16:05:16;28.20;96.00
3334;DHT22;1679;50.392;8.008;2023-06-24T16:07:42;28.10;95.10
3334;DHT22;1679;50.392;8.008;2023-06-24T16:10:08;28.00;96.50